createdAt,value
2018-11-11T00:04:28.954Z,42
2018-11-11T00:09:31.451Z,36
2018-11-11T00:14:33.875Z,40
2018-11-11T00:19:36.346Z,45
2018-11-11T00:24:38.820Z,39
2018-11-11T00:29:41.263Z,44
2018-11-11T00:34:43.703Z,44
2018-11-11T00:39:46.271Z,45
2018-11-11T00:44:48.624Z,42
2018-11-11T00:49:51.113Z,46
2018-11-11T00:54:53.532Z,42
2018-11-11T00:59:55.995Z,48
2018-11-11T01:04:58.445Z,45
2018-11-11T01:10:00.954Z,46
2018-11-11T01:15:03.406Z,47
2018-11-11T01:20:05.850Z,48
2018-11-11T01:25:08.297Z,43
2018-11-11T01:30:10.820Z,44
2018-11-11T01:35:13.263Z,49
2018-11-11T01:40:15.649Z,55
2018-11-11T01:45:18.121Z,60
2018-11-11T01:50:20.564Z,52
2018-11-11T01:55:23.028Z,55
2018-11-11T02:00:25.512Z,62
2018-11-11T02:05:27.935Z,54
2018-11-11T02:10:30.392Z,60
2018-11-11T02:15:32.940Z,57
2018-11-11T02:20:35.327Z,55
2018-11-11T02:25:37.774Z,51
2018-11-11T02:30:40.236Z,50
2018-11-11T02:35:42.677Z,42
2018-11-11T02:40:45.137Z,51
2018-11-11T02:45:47.595Z,55
2018-11-11T02:50:50.040Z,53
2018-11-11T02:55:52.513Z,60
2018-11-11T03:00:54.972Z,59
2018-11-11T03:05:57.438Z,46
2018-11-11T03:10:59.880Z,49
2018-11-11T03:16:02.347Z,48
2018-11-11T03:21:04.793Z,49
2018-11-11T03:26:07.254Z,43
2018-11-11T03:31:09.736Z,40
2018-11-11T03:36:12.245Z,42
2018-11-11T03:41:14.628Z,38
2018-11-11T03:46:17.123Z,44
2018-11-11T03:51:19.544Z,44
2018-11-11T03:56:22.034Z,41
2018-11-11T04:01:24.460Z,40
2018-11-11T04:06:26.921Z,41
2018-11-11T04:11:29.400Z,39
2018-11-11T04:16:31.828Z,45
2018-11-11T04:21:34.302Z,37
2018-11-11T04:26:36.799Z,36
2018-11-11T04:31:39.216Z,42
2018-11-11T04:36:41.705Z,36
2018-11-11T04:41:44.141Z,36
2018-11-11T04:46:46.603Z,35
2018-11-11T04:51:49.127Z,39
2018-11-11T04:56:51.504Z,33
2018-11-11T05:01:53.990Z,34
2018-11-11T05:06:56.483Z,33
2018-11-11T05:11:58.935Z,32
2018-11-11T05:17:01.406Z,31
2018-11-11T05:22:03.860Z,31
2018-11-11T05:27:06.298Z,30
2018-11-11T05:32:13.713Z,29
2018-11-11T05:37:11.182Z,26
2018-11-11T05:42:13.662Z,31
2018-11-11T05:47:16.192Z,30
2018-11-11T05:52:18.673Z,31
2018-11-11T05:57:21.017Z,28
2018-11-11T06:02:23.480Z,26
2018-11-11T06:07:25.931Z,30
2018-11-11T06:12:28.416Z,28
2018-11-11T06:17:30.870Z,31
2018-11-11T06:22:33.319Z,27
2018-11-11T06:27:35.898Z,30
2018-11-11T06:32:38.285Z,25
2018-11-11T06:37:40.724Z,27
2018-11-11T06:42:43.133Z,24
2018-11-11T06:47:45.597Z,24
2018-11-11T06:52:48.067Z,23
2018-11-11T06:57:50.568Z,18
2018-11-11T07:02:52.974Z,18
2018-11-11T07:07:55.427Z,20
2018-11-11T07:12:57.991Z,18
2018-11-11T07:18:00.344Z,19
2018-11-11T07:23:02.799Z,25
2018-11-11T07:28:05.281Z,23
2018-11-11T07:33:07.721Z,22
2018-11-11T07:38:10.180Z,23
2018-11-11T07:43:12.641Z,20
2018-11-11T07:48:15.091Z,22
2018-11-11T07:53:17.544Z,21
2018-11-11T07:58:20.021Z,22
2018-11-11T08:03:22.478Z,19
2018-11-11T08:08:24.931Z,17
2018-11-11T08:13:27.394Z,17
2018-11-11T08:18:29.837Z,18
2018-11-11T08:23:32.292Z,20
2018-11-11T08:28:34.752Z,21
2018-11-11T08:33:37.216Z,19
2018-11-11T08:38:39.676Z,20
2018-11-11T08:43:42.183Z,17
2018-11-11T08:48:44.585Z,15
2018-11-11T08:53:47.045Z,14
2018-11-11T08:58:49.527Z,14
2018-11-11T09:03:51.980Z,14
2018-11-11T09:08:54.410Z,13
2018-11-11T09:18:59.326Z,14
2018-11-11T09:24:01.777Z,13
2018-11-11T09:29:04.276Z,13
2018-11-11T09:34:06.703Z,15
2018-11-11T09:39:09.265Z,12
2018-11-11T09:44:11.614Z,11
2018-11-11T09:49:14.104Z,11
2018-11-11T09:54:16.589Z,10
2018-11-11T09:59:19.000Z,12
2018-11-11T10:04:21.485Z,12
2018-11-11T10:09:23.906Z,12
2018-11-11T10:14:26.385Z,10
2018-11-11T10:19:28.816Z,11
2018-11-11T10:24:31.312Z,11
2018-11-11T10:29:33.763Z,25
2018-11-11T10:34:36.200Z,14
2018-11-11T10:39:38.650Z,12
2018-11-11T10:44:41.124Z,11
2018-11-11T10:49:43.617Z,10
2018-11-11T10:54:46.036Z,12
2018-11-11T10:59:48.505Z,17
2018-11-11T11:04:50.942Z,7
2018-11-11T11:09:53.394Z,8
2018-11-11T11:14:55.856Z,6
2018-11-11T11:19:58.341Z,7
2018-11-11T11:25:00.765Z,7
2018-11-11T11:30:03.278Z,7
2018-11-11T11:35:05.729Z,7
2018-11-11T11:40:08.154Z,6
2018-11-11T11:45:10.618Z,6
2018-11-11T11:50:13.108Z,11
2018-11-11T11:55:15.575Z,7
2018-11-11T12:00:17.973Z,7
2018-11-11T12:10:22.907Z,6
2018-11-11T12:15:25.361Z,6
2018-11-11T12:20:27.800Z,6
2018-11-11T12:25:30.258Z,7
2018-11-11T12:30:32.907Z,7
2018-11-11T12:35:35.180Z,6
2018-11-11T12:40:37.641Z,7
2018-11-11T12:45:40.118Z,7
2018-11-11T12:50:42.572Z,6
2018-11-11T12:55:45.021Z,4
2018-11-11T13:00:47.558Z,5
2018-11-11T13:05:49.930Z,4
2018-11-11T13:10:52.398Z,4
2018-11-11T13:15:54.847Z,5
2018-11-11T13:20:57.310Z,5
2018-11-11T13:25:59.776Z,5
2018-11-11T13:31:02.229Z,4
2018-11-11T13:36:04.681Z,4
2018-11-11T13:41:07.139Z,6
2018-11-11T13:46:09.774Z,5
2018-11-11T13:51:12.053Z,5
2018-11-11T13:56:14.513Z,5
2018-11-11T14:01:16.974Z,5
2018-11-11T14:06:19.425Z,5
2018-11-11T14:11:21.879Z,6
2018-11-11T14:16:24.351Z,6
2018-11-11T14:21:26.797Z,6
2018-11-11T14:26:29.325Z,4
2018-11-11T14:31:31.704Z,6
2018-11-11T14:36:34.172Z,7
2018-11-11T14:41:36.639Z,5
2018-11-11T14:46:39.086Z,6
2018-11-11T14:51:41.554Z,6
2018-11-11T14:56:44.055Z,4
2018-11-11T15:01:46.496Z,5
2018-11-11T15:06:48.914Z,6
2018-11-11T15:11:51.396Z,4
2018-11-11T15:16:53.833Z,9
2018-11-11T15:21:56.282Z,4
2018-11-11T15:26:58.739Z,4
2018-11-11T15:32:01.198Z,5
2018-11-11T15:37:03.661Z,6
2018-11-11T15:42:06.129Z,5
2018-11-11T15:47:08.577Z,6
2018-11-11T15:52:11.097Z,4
2018-11-11T15:57:13.497Z,5
2018-11-11T16:02:15.949Z,7
2018-11-11T16:07:18.400Z,14
2018-11-11T16:12:20.871Z,13
2018-11-11T16:17:23.312Z,22
2018-11-11T16:22:25.780Z,12
2018-11-11T16:27:28.305Z,13
2018-11-11T16:32:30.689Z,12
2018-11-11T16:37:33.218Z,13
2018-11-11T16:42:35.635Z,15
2018-11-11T16:47:38.118Z,10
2018-11-11T16:52:40.625Z,12
2018-11-11T16:57:42.982Z,17
2018-11-11T17:02:45.434Z,18
2018-11-11T17:07:47.900Z,24
2018-11-11T17:12:50.356Z,13
2018-11-11T17:17:52.806Z,13
2018-11-11T17:22:55.419Z,15
2018-11-11T17:27:57.809Z,13
2018-11-11T17:33:00.248Z,12
2018-11-11T17:38:02.644Z,14
2018-11-11T17:43:05.116Z,11
2018-11-11T17:48:07.560Z,12
2018-11-11T17:53:10.019Z,10
2018-11-11T17:58:12.495Z,11
2018-11-11T18:03:15.059Z,11
2018-11-11T18:08:17.431Z,12
2018-11-11T18:13:19.872Z,12
2018-11-11T18:18:22.313Z,14
2018-11-11T18:23:24.770Z,16
2018-11-11T18:28:27.268Z,16
2018-11-11T18:33:29.674Z,18
2018-11-11T18:38:32.137Z,18
2018-11-11T18:43:34.627Z,32
2018-11-11T18:48:37.047Z,29
2018-11-11T18:53:39.526Z,29
2018-11-11T18:58:41.973Z,35
2018-11-11T19:03:44.420Z,33
2018-11-11T19:08:46.872Z,29
2018-11-11T19:13:49.328Z,37
2018-11-11T19:18:51.863Z,33
2018-11-11T19:23:54.354Z,32
2018-11-11T19:28:56.719Z,27
2018-11-11T19:33:59.184Z,26
